Costa Fascinosa — ICPO — position and weather

sailwx.info

Track history (hours):
 
Tides and Currents Weather Stations Pressure Air Temp Water Temp Dewpoint Dewpoint Depression Visibility Wind Speed Wind Dir Waves Ship Positions

Costa Fascinosa

Last reported at 2017-Jul-21 02:30 UTC. Time now 2017-Jul-21 02:27 UTC.
Position N 39°01' E 001°58'.

Length 291 m; draft 8.3 m.

Type: Passenger vessel. MMSI: 247313500.

Date/timePositionNaut miles runAvg speedWind from/ knotsBaromVisibWave heightAir tempDewpointWater temp
2017-Jul-21 02:30N 39°01' E 001°58'611.4
2017-Jul-21 02:00N 38°58' E 001°52'611.3
2017-Jul-21 01:30N 38°57' E 001°45'611.1
2017-Jul-21 01:00N 38°55' E 001°38'611.3
2017-Jul-21 00:30N 38°54' E 001°31'3 0.2
2017-Jul-20 06:48N 38°54' E 001°27'1 3.8
2017-Jul-20 06:31N 38°54' E 001°28'815.2
2017-Jul-20 06:00N 38°53' E 001°38'917.1
2017-Jul-20 05:30N 38°53' E 001°49'917.8
2017-Jul-20 05:00N 38°52' E 002°00'917.6
2017-Jul-20 04:31N 38°51' E 002°11'917.6
2017-Jul-20 04:00N 38°51' E 002°23'917.6
2017-Jul-20 03:31N 38°50' E 002°34'917.6
2017-Jul-20 03:00N 38°50' E 002°45'917.7
2017-Jul-20 02:30N 38°49' E 002°57'917.5
2017-Jul-20 02:00N 38°49' E 003°08'917.5
2017-Jul-20 01:30N 38°48' E 003°19'917.6
2017-Jul-20 01:00N 38°47' E 003°30'917.6
2017-Jul-20 00:30N 38°47' E 003°42'917.7
2017-Jul-20 00:00N 38°46' E 003°53'917.8
2017-Jul-19 23:30N 38°46' E 004°04'917.6
2017-Jul-19 22:59N 38°45' E 004°16'817.4
2017-Jul-19 22:30N 38°45' E 004°27'917.4
2017-Jul-19 22:00N 38°44' E 004°38'917.5
2017-Jul-19 21:30N 38°43' E 004°49'917.3
2017-Jul-19 21:00N 38°43' E 005°00'917.4
2017-Jul-19 20:30N 38°42' E 005°11'917.6
2017-Jul-19 20:00N 38°42' E 005°23'917.7
2017-Jul-19 19:30N 38°41' E 005°34'917.8
2017-Jul-19 19:00N 38°41' E 005°45'917.7
2017-Jul-19 18:30N 38°40' E 005°56'917.9
2017-Jul-19 18:01N 38°39' E 006°08'917.7
2017-Jul-19 17:31N 38°39' E 006°19'917.4
2017-Jul-19 17:00N 38°38' E 006°30'917.6
2017-Jul-19 16:30N 38°38' E 006°41'917.6
2017-Jul-19 16:00N 38°37' E 006°53'917.6
2017-Jul-19 15:30N 38°36' E 007°04'917.9
2017-Jul-19 15:00N 38°36' E 007°15'917.7
2017-Jul-19 14:31N 38°35' E 007°27'917.7
2017-Jul-19 14:00N 38°35' E 007°38'917.8
2017-Jul-19 13:30N 38°34' E 007°50'8712.9
2017-Jul-19 06:47N 38°28' E 009°41'3712.8
2017-Jul-19 03:54N 38°26' E 010°28'1013.2
2017-Jul-19 03:07N 38°25' E 010°41'213.3
2017-Jul-19 03:00N 38°25' E 010°43'1813.4
2017-Jul-19 01:38N 38°24' E 011°06'7113.1
2017-Jul-18 20:12N 38°19' E 012°37'413.0
2017-Jul-18 19:52N 38°19' E 012°43'512.9
2017-Jul-18 19:30N 38°19' E 012°48'612.8
2017-Jul-18 19:01N 38°18' E 012°56'612.8
2017-Jul-18 18:31N 38°18' E 013°05'612.8
2017-Jul-18 18:00N 38°18' E 013°13'612.7
2017-Jul-18 17:31N 38°17' E 013°21'611.2
2017-Jul-18 17:01N 38°12' E 013°25'5 9.8
2017-Jul-18 16:30N 38°08' E 013°24'2 3.6
2017-Jul-18 16:00N 38°08' E 013°22'0 0.0
2017-Jul-18 15:30N 38°08' E 013°22'0 0.0
2017-Jul-18 15:00N 38°08' E 013°22'0 0.0
2017-Jul-18 14:00N 38°08' E 013°22'0 0.0
2017-Jul-18 13:30N 38°08' E 013°22'0 0.0
2017-Jul-18 13:00N 38°08' E 013°22'0 0.0
2017-Jul-18 12:30N 38°08' E 013°22'0 0.0
2017-Jul-18 12:00N 38°08' E 013°22'0 0.0
2017-Jul-18 11:30N 38°08' E 013°22'0 0.0
2017-Jul-18 11:00N 38°08' E 013°22'0 0.0
2017-Jul-18 10:30N 38°08' E 013°22'0 0.0
2017-Jul-18 10:00N 38°08' E 013°22'0 0.0
2017-Jul-18 09:30N 38°08' E 013°22'0 0.0
2017-Jul-18 09:00N 38°08' E 013°22'0 0.0
2017-Jul-18 08:30N 38°08' E 013°22'0 0.0
2017-Jul-18 08:00N 38°08' E 013°22'0 0.0
2017-Jul-18 07:30N 38°08' E 013°22'0 0.0
2017-Jul-18 07:00N 38°08' E 013°22'0 0.3
2017-Jul-18 06:30N 38°08' E 013°22'2 4.8
2017-Jul-18 06:01N 38°09' E 013°25'917.2
2017-Jul-18 05:30N 38°17' E 013°27'918.0
2017-Jul-18 05:00N 38°26' E 013°30'917.9
2017-Jul-18 04:31N 38°35' E 013°33'917.7
2017-Jul-18 03:59N 38°44' E 013°35'9613.9
2017-Jul-17 21:04N 40°17' E 014°04'112.7
2017-Jul-17 21:00N 40°18' E 014°04'612.8
2017-Jul-17 20:30N 40°24' E 014°06'613.0
2017-Jul-17 20:00N 40°31' E 014°08'713.2
2017-Jul-17 19:30N 40°37' E 014°10'713.2
2017-Jul-17 19:00N 40°43' E 014°14'712.3
2017-Jul-17 18:29N 40°49' E 014°17'1 0.2
2017-Jul-17 10:41N 40°50' E 014°16'1 6.3
2017-Jul-17 10:28N 40°49' E 014°17'511.0
2017-Jul-17 10:00N 40°44' E 014°16'816.9
2017-Jul-17 09:30N 40°40' E 014°07'918.1
2017-Jul-17 09:00N 40°39' E 013°55'22819.3
2017-Jul-16 21:12N 42°43' E 009°39'520.9
2017-Jul-16 20:59N 42°48' E 009°38'1020.7
2017-Jul-16 20:30N 42°58' E 009°36'1020.1
2017-Jul-16 20:00N 43°07' E 009°31'1020.7
2017-Jul-16 19:30N 43°16' E 009°24'1020.5
2017-Jul-16 19:00N 43°25' E 009°16'1020.5
2017-Jul-16 18:30N 43°34' E 009°09'1020.5
2017-Jul-16 18:00N 43°42' E 009°02'1020.7
2017-Jul-16 17:30N 43°51' E 008°54'1020.7
2017-Jul-16 17:00N 43°60' E 008°46'1020.4
2017-Jul-16 16:30N 44°09' E 008°39'1019.3
2017-Jul-16 16:00N 44°17' E 008°33'3 5.9
2017-Jul-16 15:30N 44°19' E 008°29'0 0.3
2017-Jul-16 15:00N 44°19' E 008°29'0 0.0
2017-Jul-16 14:30N 44°19' E 008°29'0 0.0
2017-Jul-16 14:00N 44°19' E 008°29'0 0.0
2017-Jul-16 13:30N 44°19' E 008°29'0 0.0
2017-Jul-16 13:00N 44°19' E 008°29'0 0.0
2017-Jul-16 12:30N 44°19' E 008°29'0 0.0
2017-Jul-16 12:00N 44°19' E 008°29'0 0.0
2017-Jul-16 11:30N 44°19' E 008°29'0 0.0
2017-Jul-16 10:57N 44°19' E 008°29'0 0.0
2017-Jul-16 10:27N 44°19' E 008°29'0 0.0
2017-Jul-16 10:00N 44°19' E 008°29'0 0.0
2017-Jul-16 09:27N 44°19' E 008°29'0 0.0
2017-Jul-16 08:57N 44°19' E 008°29'0 0.0
2017-Jul-16 08:27N 44°19' E 008°29'0 0.0
2017-Jul-16 08:00N 44°19' E 008°29'0 0.0
2017-Jul-16 07:30N 44°19' E 008°29'0 0.0
2017-Jul-16 07:00N 44°19' E 008°29'0 0.0
2017-Jul-16 06:30N 44°19' E 008°29'0 0.2
2017-Jul-16 06:00N 44°19' E 008°29'3 5.3
2017-Jul-16 05:30N 44°17' E 008°32'918.2
2017-Jul-16 05:00N 44°09' E 008°27'1019.8
2017-Jul-16 04:30N 44°00' E 008°20'1019.8
2017-Jul-16 04:00N 43°52' E 008°13'1019.3
2017-Jul-16 03:30N 43°44' E 008°04'1119.2
2017-Jul-16 02:57N 43°38' E 007°52'919.0
2017-Jul-16 02:30N 43°33' E 007°42'1019.8
2017-Jul-16 02:00N 43°28' E 007°31'1020.0
2017-Jul-16 01:30N 43°22' E 007°20'1020.2
2017-Jul-16 01:00N 43°16' E 007°08'1020.0
2017-Jul-16 00:30N 43°10' E 006°58'1019.9
2017-Jul-15 23:59N 43°02' E 006°48'1019.5
2017-Jul-15 23:30N 42°59' E 006°36'1019.6
2017-Jul-15 23:00N 42°54' E 006°24'1019.8
2017-Jul-15 22:30N 42°50' E 006°12'1020.1
2017-Jul-15 22:00N 42°45' E 006°00'1020.5
2017-Jul-15 21:30N 42°40' E 005°48'4720.7
2017-Jul-15 19:15N 42°17' E 004°53'520.6
2017-Jul-15 19:00N 42°15' E 004°47'1720.7
2017-Jul-15 18:12N 42°08' E 004°27'620.3
2017-Jul-15 17:56N 42°05' E 004°20'920.3
2017-Jul-15 17:30N 42°01' E 004°10'1020.5
2017-Jul-15 17:00N 41°56' E 003°58'1020.5
2017-Jul-15 16:30N 41°51' E 003°46'1020.4
2017-Jul-15 16:00N 41°46' E 003°34'1621.1
2017-Jul-15 15:13N 41°38' E 003°14'4321.2
2017-Jul-15 13:11N 41°18' E 002°23'521.2
2017-Jul-15 12:58N 41°16' E 002°18'613.0
2017-Jul-15 12:30N 41°19' E 002°10'3 4.6
2017-Jul-15 11:56N 41°21' E 002°10'0 0.0
2017-Jul-15 10:44N 41°21' E 002°10'0 0.0
2017-Jul-15 09:56N 41°21' E 002°10'0 0.0
2017-Jul-15 09:14N 41°21' E 002°10'0 0.0
2017-Jul-15 08:50N 41°21' E 002°10'48 5.9
2017-Jul-15 00:45N 40°34' E 002°13'312.8
2017-Jul-15 00:30N 40°30' E 002°13'713.1
2017-Jul-15 00:00N 40°24' E 002°13'510.9
2017-Jul-14 23:31N 40°18' E 002°14'611.0
2017-Jul-14 23:01N 40°13' E 002°14'611.2
2017-Jul-14 22:31N 40°07' E 002°14'611.7
2017-Jul-14 22:00N 40°01' E 002°13'611.7
2017-Jul-14 21:30N 39°56' E 002°13'611.6
2017-Jul-14 21:00N 39°50' E 002°13'611.7
2017-Jul-14 20:30N 39°44' E 002°13'611.5
2017-Jul-14 19:59N 39°38' E 002°14'611.3
2017-Jul-14 19:28N 39°32' E 002°14'511.2
2017-Jul-14 19:00N 39°29' E 002°20'611.9
2017-Jul-14 18:30N 39°26' E 002°27'511.0
2017-Jul-14 18:00N 39°26' E 002°34'510.8
2017-Jul-14 17:30N 39°30' E 002°38'3 5.4
2017-Jul-14 17:00N 39°33' E 002°38'0 0.0
2017-Jul-14 16:30N 39°33' E 002°38'0 0.0
2017-Jul-14 16:00N 39°33' E 002°38'0 0.0
2017-Jul-14 15:29N 39°33' E 002°38'0 0.0
2017-Jul-14 14:58N 39°33' E 002°38'0 0.0
2017-Jul-14 14:28N 39°33' E 002°38'0 0.0
2017-Jul-14 13:58N 39°33' E 002°38'0 0.0
2017-Jul-14 13:30N 39°33' E 002°38'0 0.0
2017-Jul-14 12:58N 39°33' E 002°38'0 0.0
2017-Jul-14 12:28N 39°33' E 002°38'0 0.0
2017-Jul-14 12:00N 39°33' E 002°38'0 0.0
2017-Jul-14 11:29N 39°33' E 002°38'0 0.0
2017-Jul-14 10:59N 39°33' E 002°38'0 0.0
2017-Jul-14 10:29N 39°33' E 002°38'0 0.0
2017-Jul-14 09:59N 39°33' E 002°38'0 0.0
2017-Jul-14 09:29N 39°33' E 002°38'0 0.0
2017-Jul-14 08:59N 39°33' E 002°38'0 0.0
2017-Jul-14 08:29N 39°33' E 002°38'0 0.0
2017-Jul-14 07:59N 39°33' E 002°38'0 0.0
2017-Jul-14 07:29N 39°33' E 002°38'0 0.0
2017-Jul-14 06:59N 39°33' E 002°38'1 3.1
2017-Jul-14 06:31N 39°32' E 002°39'510.6
2017-Jul-14 06:00N 39°27' E 002°35'510.6
2017-Jul-14 05:30N 39°23' E 002°32'510.8
2017-Jul-14 05:00N 39°18' E 002°28'510.5
2017-Jul-14 04:30N 39°14' E 002°24'510.6
2017-Jul-14 04:00N 39°11' E 002°18'510.9
2017-Jul-14 03:30N 39°08' E 002°12'511.1
2017-Jul-14 03:00N 39°05' E 002°06'510.8
2017-Jul-14 02:30N 39°02' E 002°00'611.2
2017-Jul-14 02:00N 38°59' E 001°54'611.2
2017-Jul-14 01:30N 38°57' E 001°47'611.3
2017-Jul-14 01:00N 38°56' E 001°40'611.3
2017-Jul-14 00:30N 38°54' E 001°33'5 2.4
2017-Jul-13 22:30N 38°54' E 001°27'0 0.0
2017-Jul-13 19:54N 38°54' E 001°27'0 0.0
2017-Jul-13 19:30N 38°54' E 001°27'0 0.0
2017-Jul-13 17:54N 38°54' E 001°27'0 0.0
2017-Jul-13 17:30N 38°54' E 001°27'0 0.0
2017-Jul-13 14:36N 38°54' E 001°27'0 0.0
2017-Jul-13 14:30N 38°54' E 001°27'0 0.0
2017-Jul-13 07:14N 38°54' E 001°27'0 0.0
2017-Jul-13 06:56N 38°54' E 001°27'0 0.4
2017-Jul-13 06:29N 38°54' E 001°27'4 8.3
2017-Jul-13 06:00N 38°53' E 001°32'712.4
2017-Jul-13 05:25N 38°53' E 001°41'512.4
2017-Jul-13 05:00N 38°53' E 001°48'715.3
2017-Jul-13 04:30N 38°52' E 001°58'918.7
2017-Jul-13 04:00N 38°52' E 002°10'918.5
2017-Jul-13 03:30N 38°51' E 002°21'1018.4
2017-Jul-13 02:59N 38°50' E 002°34'918.4
2017-Jul-13 02:30N 38°49' E 002°45'918.4
2017-Jul-13 02:00N 38°49' E 002°57'918.3
2017-Jul-13 01:30N 38°49' E 003°08'918.0
2017-Jul-13 01:00N 38°49' E 003°20'917.9
2017-Jul-13 00:30N 38°49' E 003°31'918.0
2017-Jul-13 00:00N 38°47' E 003°43'917.9
2017-Jul-12 23:30N 38°46' E 003°54'917.9
2017-Jul-12 23:00N 38°46' E 004°06'917.9
2017-Jul-12 22:30N 38°45' E 004°17'917.6
2017-Jul-12 22:00N 38°44' E 004°28'917.6
2017-Jul-12 21:30N 38°43' E 004°39'917.6
2017-Jul-12 20:59N 38°42' E 004°51'1217.5
2017-Jul-12 20:16N 38°42' E 005°07'517.6
2017-Jul-12 20:00N 38°42' E 005°13'917.6
2017-Jul-12 19:30N 38°42' E 005°24'917.7
2017-Jul-12 19:00N 38°41' E 005°36'917.8
2017-Jul-12 18:30N 38°40' E 005°47'917.7
2017-Jul-12 18:00N 38°40' E 005°58'11117.8
2017-Jul-12 11:45N 38°33' E 008°20'417.2
2017-Jul-12 11:30N 38°32' E 008°26'917.6
2017-Jul-12 11:00N 38°32' E 008°37'917.8
2017-Jul-12 10:30N 38°31' E 008°48'918.1
2017-Jul-12 10:00N 38°31' E 008°60'918.0
2017-Jul-12 09:30N 38°30' E 009°11'917.8
2017-Jul-12 09:00N 38°29' E 009°23'917.4
2017-Jul-12 08:30N 38°29' E 009°34'713.3
2017-Jul-12 08:00N 38°28' E 009°42'612.4
2017-Jul-12 07:30N 38°28' E 009°50'612.3
2017-Jul-12 07:00N 38°28' E 009°58'612.1
2017-Jul-12 06:29N 38°27' E 010°06'612.0
2017-Jul-12 06:01N 38°27' E 010°13'611.8
2017-Jul-12 05:31N 38°26' E 010°21'611.7
2017-Jul-12 05:00N 38°26' E 010°28'611.6
2017-Jul-12 04:29N 38°26' E 010°36'611.6
2017-Jul-12 04:00N 38°25' E 010°43'611.6
2017-Jul-12 03:30N 38°25' E 010°50'611.7
2017-Jul-12 03:00N 38°24' E 010°58'611.7
2017-Jul-12 02:31N 38°24' E 011°05'611.5
2017-Jul-12 02:01N 38°24' E 011°13'1211.8
2017-Jul-12 01:00N 38°23' E 011°28'611.9
2017-Jul-12 00:31N 38°23' E 011°35'611.8
2017-Jul-11 23:59N 38°22' E 011°43'611.5
2017-Jul-11 23:30N 38°22' E 011°50'1011.6
2017-Jul-11 22:39N 38°21' E 012°02'311.6
2017-Jul-11 22:26N 38°21' E 012°06'2111.7
2017-Jul-11 20:36N 38°20' E 012°33'411.7
2017-Jul-11 20:15N 38°19' E 012°38'311.7
2017-Jul-11 19:59N 38°19' E 012°42'611.7
2017-Jul-11 19:31N 38°19' E 012°49'1911.6
2017-Jul-11 17:53N 38°18' E 013°13'411.8
2017-Jul-11 17:30N 38°17' E 013°19'510.5
2017-Jul-11 17:00N 38°14' E 013°24'611.0
2017-Jul-11 16:30N 38°08' E 013°25'2 5.0
2017-Jul-11 16:00N 38°08' E 013°22'0 0.2
2017-Jul-11 15:28N 38°08' E 013°22'0 0.0
2017-Jul-11 14:49N 38°08' E 013°22'0 0.0
2017-Jul-11 14:19N 38°08' E 013°22'0 0.0
2017-Jul-11 13:49N 38°08' E 013°22'0 0.0
2017-Jul-11 13:22N 38°08' E 013°22'0 0.0
2017-Jul-11 12:52N 38°08' E 013°22'0 0.0
2017-Jul-11 12:22N 38°08' E 013°22'0 0.0
2017-Jul-11 11:52N 38°08' E 013°22'0 0.0
2017-Jul-11 11:22N 38°08' E 013°22'0 0.0
2017-Jul-11 10:52N 38°08' E 013°22'0 0.0
2017-Jul-11 10:22N 38°08' E 013°22'0 0.0
2017-Jul-11 09:55N 38°08' E 013°22'0 0.0
2017-Jul-11 09:25N 38°08' E 013°22'0 0.0
2017-Jul-11 08:55N 38°08' E 013°22'0 0.0
2017-Jul-11 08:25N 38°08' E 013°22'0 0.0
2017-Jul-11 07:58N 38°08' E 013°22'0 0.0
2017-Jul-11 07:22N 38°08' E 013°22'0 0.0
2017-Jul-11 06:52N 38°08' E 013°22'0 0.0
2017-Jul-11 06:28N 38°08' E 013°22'1 2.8
2017-Jul-11 06:00N 38°07' E 013°23'612.9
2017-Jul-11 05:30N 38°13' E 013°26'917.5
2017-Jul-11 05:00N 38°22' E 013°29'1117.8
2017-Jul-11 04:24N 38°32' E 013°32'  
Track history (hours):
 
Tides and Currents Weather Stations Pressure Air Temp Water Temp Dewpoint Dewpoint Depression Visibility Wind Speed Wind Dir Waves Ship Positions

Costa Fascinosa

Last reported at 2017-Jul-21 02:30 UTC. Time now 2017-Jul-21 02:28 UTC.
Position N 39°01' E 001°58'.

Length 291 m; draft 8.3 m.

Type: Passenger vessel. MMSI: 247313500.

Date/timePositionNaut miles runAvg speedWind from/ knotsBaromVisibWave heightAir tempDewpointWater temp
2017-Jul-21 02:30N 39°01' E 001°58'611.4
2017-Jul-21 02:00N 38°58' E 001°52'611.3
2017-Jul-21 01:30N 38°57' E 001°45'611.1
2017-Jul-21 01:00N 38°55' E 001°38'611.3
2017-Jul-21 00:30N 38°54' E 001°31'3 0.2
2017-Jul-20 06:48N 38°54' E 001°27'1 3.8
2017-Jul-20 06:31N 38°54' E 001°28'815.2
2017-Jul-20 06:00N 38°53' E 001°38'917.1
2017-Jul-20 05:30N 38°53' E 001°49'917.8
2017-Jul-20 05:00N 38°52' E 002°00'917.6
2017-Jul-20 04:31N 38°51' E 002°11'917.6
2017-Jul-20 04:00N 38°51' E 002°23'917.6
2017-Jul-20 03:31N 38°50' E 002°34'917.6
2017-Jul-20 03:00N 38°50' E 002°45'917.7
2017-Jul-20 02:30N 38°49' E 002°57'917.5
2017-Jul-20 02:00N 38°49' E 003°08'917.5
2017-Jul-20 01:30N 38°48' E 003°19'917.6
2017-Jul-20 01:00N 38°47' E 003°30'917.6
2017-Jul-20 00:30N 38°47' E 003°42'917.7
2017-Jul-20 00:00N 38°46' E 003°53'917.8
2017-Jul-19 23:30N 38°46' E 004°04'917.6
2017-Jul-19 22:59N 38°45' E 004°16'817.4
2017-Jul-19 22:30N 38°45' E 004°27'917.4
2017-Jul-19 22:00N 38°44' E 004°38'917.5
2017-Jul-19 21:30N 38°43' E 004°49'917.3
2017-Jul-19 21:00N 38°43' E 005°00'917.4
2017-Jul-19 20:30N 38°42' E 005°11'917.6
2017-Jul-19 20:00N 38°42' E 005°23'917.7
2017-Jul-19 19:30N 38°41' E 005°34'917.8
2017-Jul-19 19:00N 38°41' E 005°45'917.7
2017-Jul-19 18:30N 38°40' E 005°56'917.9
2017-Jul-19 18:01N 38°39' E 006°08'917.7
2017-Jul-19 17:31N 38°39' E 006°19'917.4
2017-Jul-19 17:00N 38°38' E 006°30'917.6
2017-Jul-19 16:30N 38°38' E 006°41'917.6
2017-Jul-19 16:00N 38°37' E 006°53'917.6
2017-Jul-19 15:30N 38°36' E 007°04'917.9
2017-Jul-19 15:00N 38°36' E 007°15'917.7
2017-Jul-19 14:31N 38°35' E 007°27'917.7
2017-Jul-19 14:00N 38°35' E 007°38'917.8
2017-Jul-19 13:30N 38°34' E 007°50'8712.9
2017-Jul-19 06:47N 38°28' E 009°41'3712.8
2017-Jul-19 03:54N 38°26' E 010°28'1013.2
2017-Jul-19 03:07N 38°25' E 010°41'213.3
2017-Jul-19 03:00N 38°25' E 010°43'1813.4
2017-Jul-19 01:38N 38°24' E 011°06'7113.1
2017-Jul-18 20:12N 38°19' E 012°37'413.0
2017-Jul-18 19:52N 38°19' E 012°43'512.9
2017-Jul-18 19:30N 38°19' E 012°48'612.8
2017-Jul-18 19:01N 38°18' E 012°56'612.8
2017-Jul-18 18:31N 38°18' E 013°05'612.8
2017-Jul-18 18:00N 38°18' E 013°13'612.7
2017-Jul-18 17:31N 38°17' E 013°21'611.2
2017-Jul-18 17:01N 38°12' E 013°25'5 9.8
2017-Jul-18 16:30N 38°08' E 013°24'2 3.6
2017-Jul-18 16:00N 38°08' E 013°22'0 0.0
2017-Jul-18 15:30N 38°08' E 013°22'0 0.0
2017-Jul-18 15:00N 38°08' E 013°22'0 0.0
2017-Jul-18 14:00N 38°08' E 013°22'0 0.0
2017-Jul-18 13:30N 38°08' E 013°22'0 0.0
2017-Jul-18 13:00N 38°08' E 013°22'0 0.0
2017-Jul-18 12:30N 38°08' E 013°22'0 0.0
2017-Jul-18 12:00N 38°08' E 013°22'0 0.0
2017-Jul-18 11:30N 38°08' E 013°22'0 0.0
2017-Jul-18 11:00N 38°08' E 013°22'0 0.0
2017-Jul-18 10:30N 38°08' E 013°22'0 0.0
2017-Jul-18 10:00N 38°08' E 013°22'0 0.0
2017-Jul-18 09:30N 38°08' E 013°22'0 0.0
2017-Jul-18 09:00N 38°08' E 013°22'0 0.0
2017-Jul-18 08:30N 38°08' E 013°22'0 0.0
2017-Jul-18 08:00N 38°08' E 013°22'0 0.0
2017-Jul-18 07:30N 38°08' E 013°22'0 0.0
2017-Jul-18 07:00N 38°08' E 013°22'0 0.3
2017-Jul-18 06:30N 38°08' E 013°22'2 4.8
2017-Jul-18 06:01N 38°09' E 013°25'917.2
2017-Jul-18 05:30N 38°17' E 013°27'918.0
2017-Jul-18 05:00N 38°26' E 013°30'917.9
2017-Jul-18 04:31N 38°35' E 013°33'917.7
2017-Jul-18 03:59N 38°44' E 013°35'9613.9
2017-Jul-17 21:04N 40°17' E 014°04'112.7
2017-Jul-17 21:00N 40°18' E 014°04'612.8
2017-Jul-17 20:30N 40°24' E 014°06'613.0
2017-Jul-17 20:00N 40°31' E 014°08'713.2
2017-Jul-17 19:30N 40°37' E 014°10'713.2
2017-Jul-17 19:00N 40°43' E 014°14'712.3
2017-Jul-17 18:29N 40°49' E 014°17'1 0.2
2017-Jul-17 10:41N 40°50' E 014°16'1 6.3
2017-Jul-17 10:28N 40°49' E 014°17'511.0
2017-Jul-17 10:00N 40°44' E 014°16'816.9
2017-Jul-17 09:30N 40°40' E 014°07'918.1
2017-Jul-17 09:00N 40°39' E 013°55'22819.3
2017-Jul-16 21:12N 42°43' E 009°39'520.9
2017-Jul-16 20:59N 42°48' E 009°38'1020.7
2017-Jul-16 20:30N 42°58' E 009°36'1020.1
2017-Jul-16 20:00N 43°07' E 009°31'1020.7
2017-Jul-16 19:30N 43°16' E 009°24'1020.5
2017-Jul-16 19:00N 43°25' E 009°16'1020.5
2017-Jul-16 18:30N 43°34' E 009°09'1020.5
2017-Jul-16 18:00N 43°42' E 009°02'1020.7
2017-Jul-16 17:30N 43°51' E 008°54'1020.7
2017-Jul-16 17:00N 43°60' E 008°46'1020.4
2017-Jul-16 16:30N 44°09' E 008°39'1019.3
2017-Jul-16 16:00N 44°17' E 008°33'3 5.9
2017-Jul-16 15:30N 44°19' E 008°29'0 0.3
2017-Jul-16 15:00N 44°19' E 008°29'0 0.0
2017-Jul-16 14:30N 44°19' E 008°29'0 0.0
2017-Jul-16 14:00N 44°19' E 008°29'0 0.0
2017-Jul-16 13:30N 44°19' E 008°29'0 0.0
2017-Jul-16 13:00N 44°19' E 008°29'0 0.0
2017-Jul-16 12:30N 44°19' E 008°29'0 0.0
2017-Jul-16 12:00N 44°19' E 008°29'0 0.0
2017-Jul-16 11:30N 44°19' E 008°29'0 0.0
2017-Jul-16 10:57N 44°19' E 008°29'0 0.0
2017-Jul-16 10:27N 44°19' E 008°29'0 0.0
2017-Jul-16 10:00N 44°19' E 008°29'0 0.0
2017-Jul-16 09:27N 44°19' E 008°29'0 0.0
2017-Jul-16 08:57N 44°19' E 008°29'0 0.0
2017-Jul-16 08:27N 44°19' E 008°29'0 0.0
2017-Jul-16 08:00N 44°19' E 008°29'0 0.0
2017-Jul-16 07:30N 44°19' E 008°29'0 0.0
2017-Jul-16 07:00N 44°19' E 008°29'0 0.0
2017-Jul-16 06:30N 44°19' E 008°29'0 0.2
2017-Jul-16 06:00N 44°19' E 008°29'3 5.3
2017-Jul-16 05:30N 44°17' E 008°32'918.2
2017-Jul-16 05:00N 44°09' E 008°27'1019.8
2017-Jul-16 04:30N 44°00' E 008°20'1019.8
2017-Jul-16 04:00N 43°52' E 008°13'1019.3
2017-Jul-16 03:30N 43°44' E 008°04'1119.2
2017-Jul-16 02:57N 43°38' E 007°52'919.0
2017-Jul-16 02:30N 43°33' E 007°42'1019.8
2017-Jul-16 02:00N 43°28' E 007°31'1020.0
2017-Jul-16 01:30N 43°22' E 007°20'1020.2
2017-Jul-16 01:00N 43°16' E 007°08'1020.0
2017-Jul-16 00:30N 43°10' E 006°58'1019.9
2017-Jul-15 23:59N 43°02' E 006°48'1019.5
2017-Jul-15 23:30N 42°59' E 006°36'1019.6
2017-Jul-15 23:00N 42°54' E 006°24'1019.8
2017-Jul-15 22:30N 42°50' E 006°12'1020.1
2017-Jul-15 22:00N 42°45' E 006°00'1020.5
2017-Jul-15 21:30N 42°40' E 005°48'4720.7
2017-Jul-15 19:15N 42°17' E 004°53'520.6
2017-Jul-15 19:00N 42°15' E 004°47'1720.7
2017-Jul-15 18:12N 42°08' E 004°27'620.3
2017-Jul-15 17:56N 42°05' E 004°20'920.3
2017-Jul-15 17:30N 42°01' E 004°10'1020.5
2017-Jul-15 17:00N 41°56' E 003°58'1020.5
2017-Jul-15 16:30N 41°51' E 003°46'1020.4
2017-Jul-15 16:00N 41°46' E 003°34'1621.1
2017-Jul-15 15:13N 41°38' E 003°14'4321.2
2017-Jul-15 13:11N 41°18' E 002°23'521.2
2017-Jul-15 12:58N 41°16' E 002°18'613.0
2017-Jul-15 12:30N 41°19' E 002°10'3 4.6
2017-Jul-15 11:56N 41°21' E 002°10'0 0.0
2017-Jul-15 10:44N 41°21' E 002°10'0 0.0
2017-Jul-15 09:56N 41°21' E 002°10'0 0.0
2017-Jul-15 09:14N 41°21' E 002°10'0 0.0
2017-Jul-15 08:50N 41°21' E 002°10'48 5.9
2017-Jul-15 00:45N 40°34' E 002°13'312.8
2017-Jul-15 00:30N 40°30' E 002°13'713.1
2017-Jul-15 00:00N 40°24' E 002°13'510.9
2017-Jul-14 23:31N 40°18' E 002°14'611.0
2017-Jul-14 23:01N 40°13' E 002°14'611.2
2017-Jul-14 22:31N 40°07' E 002°14'611.7
2017-Jul-14 22:00N 40°01' E 002°13'611.7
2017-Jul-14 21:30N 39°56' E 002°13'611.6
2017-Jul-14 21:00N 39°50' E 002°13'611.7
2017-Jul-14 20:30N 39°44' E 002°13'611.5
2017-Jul-14 19:59N 39°38' E 002°14'611.3
2017-Jul-14 19:28N 39°32' E 002°14'511.2
2017-Jul-14 19:00N 39°29' E 002°20'611.9
2017-Jul-14 18:30N 39°26' E 002°27'511.0
2017-Jul-14 18:00N 39°26' E 002°34'510.8
2017-Jul-14 17:30N 39°30' E 002°38'3 5.4
2017-Jul-14 17:00N 39°33' E 002°38'0 0.0
2017-Jul-14 16:30N 39°33' E 002°38'0 0.0
2017-Jul-14 16:00N 39°33' E 002°38'0 0.0
2017-Jul-14 15:29N 39°33' E 002°38'0 0.0
2017-Jul-14 14:58N 39°33' E 002°38'0 0.0
2017-Jul-14 14:28N 39°33' E 002°38'0 0.0
2017-Jul-14 13:58N 39°33' E 002°38'0 0.0
2017-Jul-14 13:30N 39°33' E 002°38'0 0.0
2017-Jul-14 12:58N 39°33' E 002°38'0 0.0
2017-Jul-14 12:28N 39°33' E 002°38'0 0.0
2017-Jul-14 12:00N 39°33' E 002°38'0 0.0
2017-Jul-14 11:29N 39°33' E 002°38'0 0.0
2017-Jul-14 10:59N 39°33' E 002°38'0 0.0
2017-Jul-14 10:29N 39°33' E 002°38'0 0.0
2017-Jul-14 09:59N 39°33' E 002°38'0 0.0
2017-Jul-14 09:29N 39°33' E 002°38'0 0.0
2017-Jul-14 08:59N 39°33' E 002°38'0 0.0
2017-Jul-14 08:29N 39°33' E 002°38'0 0.0
2017-Jul-14 07:59N 39°33' E 002°38'0 0.0
2017-Jul-14 07:29N 39°33' E 002°38'0 0.0
2017-Jul-14 06:59N 39°33' E 002°38'1 3.1
2017-Jul-14 06:31N 39°32' E 002°39'510.6
2017-Jul-14 06:00N 39°27' E 002°35'510.6
2017-Jul-14 05:30N 39°23' E 002°32'510.8
2017-Jul-14 05:00N 39°18' E 002°28'510.5
2017-Jul-14 04:30N 39°14' E 002°24'510.6
2017-Jul-14 04:00N 39°11' E 002°18'510.9
2017-Jul-14 03:30N 39°08' E 002°12'511.1
2017-Jul-14 03:00N 39°05' E 002°06'510.8
2017-Jul-14 02:30N 39°02' E 002°00'611.2
2017-Jul-14 02:00N 38°59' E 001°54'611.2
2017-Jul-14 01:30N 38°57' E 001°47'611.3
2017-Jul-14 01:00N 38°56' E 001°40'611.3
2017-Jul-14 00:30N 38°54' E 001°33'5 2.4
2017-Jul-13 22:30N 38°54' E 001°27'0 0.0
2017-Jul-13 19:54N 38°54' E 001°27'0 0.0
2017-Jul-13 19:30N 38°54' E 001°27'0 0.0
2017-Jul-13 17:54N 38°54' E 001°27'0 0.0
2017-Jul-13 17:30N 38°54' E 001°27'0 0.0
2017-Jul-13 14:36N 38°54' E 001°27'0 0.0
2017-Jul-13 14:30N 38°54' E 001°27'0 0.0
2017-Jul-13 07:14N 38°54' E 001°27'0 0.0
2017-Jul-13 06:56N 38°54' E 001°27'0 0.4
2017-Jul-13 06:29N 38°54' E 001°27'4 8.3
2017-Jul-13 06:00N 38°53' E 001°32'712.4
2017-Jul-13 05:25N 38°53' E 001°41'512.4
2017-Jul-13 05:00N 38°53' E 001°48'715.3
2017-Jul-13 04:30N 38°52' E 001°58'918.7
2017-Jul-13 04:00N 38°52' E 002°10'918.5
2017-Jul-13 03:30N 38°51' E 002°21'1018.4
2017-Jul-13 02:59N 38°50' E 002°34'918.4
2017-Jul-13 02:30N 38°49' E 002°45'918.4
2017-Jul-13 02:00N 38°49' E 002°57'918.3
2017-Jul-13 01:30N 38°49' E 003°08'918.0
2017-Jul-13 01:00N 38°49' E 003°20'917.9
2017-Jul-13 00:30N 38°49' E 003°31'918.0
2017-Jul-13 00:00N 38°47' E 003°43'917.9
2017-Jul-12 23:30N 38°46' E 003°54'917.9
2017-Jul-12 23:00N 38°46' E 004°06'917.9
2017-Jul-12 22:30N 38°45' E 004°17'917.6
2017-Jul-12 22:00N 38°44' E 004°28'917.6
2017-Jul-12 21:30N 38°43' E 004°39'917.6
2017-Jul-12 20:59N 38°42' E 004°51'1217.5
2017-Jul-12 20:16N 38°42' E 005°07'517.6
2017-Jul-12 20:00N 38°42' E 005°13'917.6
2017-Jul-12 19:30N 38°42' E 005°24'917.7
2017-Jul-12 19:00N 38°41' E 005°36'917.8
2017-Jul-12 18:30N 38°40' E 005°47'917.7
2017-Jul-12 18:00N 38°40' E 005°58'11117.8
2017-Jul-12 11:45N 38°33' E 008°20'417.2
2017-Jul-12 11:30N 38°32' E 008°26'917.6
2017-Jul-12 11:00N 38°32' E 008°37'917.8
2017-Jul-12 10:30N 38°31' E 008°48'918.1
2017-Jul-12 10:00N 38°31' E 008°60'918.0
2017-Jul-12 09:30N 38°30' E 009°11'917.8
2017-Jul-12 09:00N 38°29' E 009°23'917.4
2017-Jul-12 08:30N 38°29' E 009°34'713.3
2017-Jul-12 08:00N 38°28' E 009°42'612.4
2017-Jul-12 07:30N 38°28' E 009°50'612.3
2017-Jul-12 07:00N 38°28' E 009°58'612.1
2017-Jul-12 06:29N 38°27' E 010°06'612.0
2017-Jul-12 06:01N 38°27' E 010°13'611.8
2017-Jul-12 05:31N 38°26' E 010°21'611.7
2017-Jul-12 05:00N 38°26' E 010°28'611.6
2017-Jul-12 04:29N 38°26' E 010°36'611.6
2017-Jul-12 04:00N 38°25' E 010°43'611.6
2017-Jul-12 03:30N 38°25' E 010°50'611.7
2017-Jul-12 03:00N 38°24' E 010°58'611.7
2017-Jul-12 02:31N 38°24' E 011°05'611.5
2017-Jul-12 02:01N 38°24' E 011°13'1211.8
2017-Jul-12 01:00N 38°23' E 011°28'611.9
2017-Jul-12 00:31N 38°23' E 011°35'611.8
2017-Jul-11 23:59N 38°22' E 011°43'611.5
2017-Jul-11 23:30N 38°22' E 011°50'1011.6
2017-Jul-11 22:39N 38°21' E 012°02'311.6
2017-Jul-11 22:26N 38°21' E 012°06'2111.7
2017-Jul-11 20:36N 38°20' E 012°33'411.7
2017-Jul-11 20:15N 38°19' E 012°38'311.7
2017-Jul-11 19:59N 38°19' E 012°42'611.7
2017-Jul-11 19:31N 38°19' E 012°49'1911.6
2017-Jul-11 17:53N 38°18' E 013°13'411.8
2017-Jul-11 17:30N 38°17' E 013°19'510.5
2017-Jul-11 17:00N 38°14' E 013°24'611.0
2017-Jul-11 16:30N 38°08' E 013°25'2 5.0
2017-Jul-11 16:00N 38°08' E 013°22'0 0.2
2017-Jul-11 15:28N 38°08' E 013°22'0 0.0
2017-Jul-11 14:49N 38°08' E 013°22'0 0.0
2017-Jul-11 14:19N 38°08' E 013°22'0 0.0
2017-Jul-11 13:49N 38°08' E 013°22'0 0.0
2017-Jul-11 13:22N 38°08' E 013°22'0 0.0
2017-Jul-11 12:52N 38°08' E 013°22'0 0.0
2017-Jul-11 12:22N 38°08' E 013°22'0 0.0
2017-Jul-11 11:52N 38°08' E 013°22'0 0.0
2017-Jul-11 11:22N 38°08' E 013°22'0 0.0
2017-Jul-11 10:52N 38°08' E 013°22'0 0.0
2017-Jul-11 10:22N 38°08' E 013°22'0 0.0
2017-Jul-11 09:55N 38°08' E 013°22'0 0.0
2017-Jul-11 09:25N 38°08' E 013°22'0 0.0
2017-Jul-11 08:55N 38°08' E 013°22'0 0.0
2017-Jul-11 08:25N 38°08' E 013°22'0 0.0
2017-Jul-11 07:58N 38°08' E 013°22'0 0.0
2017-Jul-11 07:22N 38°08' E 013°22'0 0.0
2017-Jul-11 06:52N 38°08' E 013°22'0 0.0
2017-Jul-11 06:28N 38°08' E 013°22'1 2.8
2017-Jul-11 06:00N 38°07' E 013°23'612.9
2017-Jul-11 05:30N 38°13' E 013°26'917.5
2017-Jul-11 05:00N 38°22' E 013°29'1117.8
2017-Jul-11 04:24N 38°32' E 013°32'  

Dump ship's entire track history